createdAt,value
2022-08-04T00:02:04.370Z,96.70
2022-08-04T00:04:49.543Z,96.90
2022-08-04T00:07:44.349Z,97.00
2022-08-04T00:10:18.078Z,97.10
2022-08-04T00:12:51.617Z,97.10
2022-08-04T00:15:24.002Z,96.90
2022-08-04T00:17:59.884Z,97.10
2022-08-04T00:20:32.419Z,97.30
2022-08-04T00:23:03.699Z,97.30
2022-08-04T00:25:31.296Z,97.40
2022-08-04T00:28:01.123Z,97.40
2022-08-04T00:30:28.500Z,97.80
2022-08-04T00:32:58.689Z,97.80
2022-08-04T00:35:30.759Z,98.00
2022-08-04T00:37:59.501Z,98.10
2022-08-04T00:41:01.896Z,98.40
2022-08-04T00:43:34.066Z,98.70
2022-08-04T00:46:15.291Z,98.50
2022-08-04T00:48:59.733Z,98.70
2022-08-04T00:52:31.782Z,99.00
2022-08-04T00:55:19.717Z,99.00
2022-08-04T00:58:22.264Z,99.20
2022-08-04T01:00:58.515Z,99.40
2022-08-04T01:03:54.932Z,99.50
2022-08-04T01:06:39.131Z,99.60
2022-08-04T01:09:44.204Z,99.80
2022-08-04T01:12:31.694Z,99.90
2022-08-04T01:15:06.432Z,99.90
2022-08-04T01:17:59.004Z,99.90
2022-08-04T01:20:30.299Z,99.90
2022-08-04T01:23:13.153Z,99.90
2022-08-04T01:25:57.255Z,99.90
2022-08-04T01:29:02.326Z,99.90
2022-08-04T01:31:42.760Z,99.90
2022-08-04T01:34:13.578Z,99.90
2022-08-04T01:36:49.917Z,99.90
2022-08-04T01:39:39.321Z,99.90
2022-08-04T01:42:10.046Z,99.90
2022-08-04T01:45:10.766Z,99.90
2022-08-04T01:47:48.475Z,99.90
2022-08-04T01:50:15.809Z,99.90
2022-08-04T01:52:50.362Z,99.90
2022-08-04T01:55:55.275Z,99.90
2022-08-04T01:58:27.768Z,99.90
2022-08-04T02:01:08.900Z,99.90
2022-08-04T02:04:20.376Z,99.90
2022-08-04T02:06:57.323Z,99.90
2022-08-04T02:09:27.337Z,99.90
2022-08-04T02:12:16.352Z,99.90
2022-08-04T02:15:32.992Z,99.90
2022-08-04T02:18:41.661Z,99.90
2022-08-04T02:21:09.651Z,99.90
2022-08-04T02:23:43.172Z,99.90
2022-08-04T02:26:22.091Z,99.90
2022-08-04T02:28:56.803Z,99.90
2022-08-04T02:31:32.406Z,99.90
2022-08-04T02:34:13.586Z,99.90
2022-08-04T02:36:42.920Z,99.90
2022-08-04T02:39:11.994Z,99.90
2022-08-04T02:41:40.782Z,99.90
2022-08-04T02:44:10.354Z,99.90
2022-08-04T02:46:39.005Z,99.90
2022-08-04T02:49:11.220Z,99.90
2022-08-04T02:51:47.367Z,99.90
2022-08-04T02:54:30.515Z,99.90
2022-08-04T02:57:04.508Z,99.90
2022-08-04T03:00:11.693Z,99.90
2022-08-04T03:03:17.017Z,99.90
2022-08-04T03:06:10.918Z,99.90
2022-08-04T03:09:23.343Z,99.90
2022-08-04T03:12:47.420Z,99.70
2022-08-04T03:16:13.395Z,99.60
2022-08-04T03:18:49.510Z,99.70
2022-08-04T03:21:37.732Z,99.50
2022-08-04T03:24:29.178Z,99.40
2022-08-04T03:27:43.254Z,99.50
2022-08-04T03:30:19.177Z,99.50
2022-08-04T03:33:05.261Z,99.60
2022-08-04T03:35:53.355Z,99.70
2022-08-04T03:38:38.895Z,99.60
2022-08-04T03:41:55.002Z,99.70
2022-08-04T03:44:45.435Z,99.60
2022-08-04T03:47:44.244Z,99.80
2022-08-04T03:50:37.104Z,99.70
2022-08-04T03:53:55.658Z,99.80
2022-08-04T03:56:48.307Z,99.90
2022-08-04T03:59:35.934Z,99.90
2022-08-04T04:02:41.506Z,99.90
2022-08-04T04:05:59.919Z,99.90
2022-08-04T04:08:38.031Z,99.90
2022-08-04T04:11:22.193Z,99.90
2022-08-04T04:13:49.404Z,99.90
2022-08-04T04:16:32.741Z,99.90
2022-08-04T04:19:31.243Z,99.90
2022-08-04T04:22:21.250Z,99.90
2022-08-04T04:25:10.525Z,99.90
2022-08-04T04:27:52.285Z,99.90
2022-08-04T04:30:42.597Z,99.90
2022-08-04T04:33:39.057Z,99.90
2022-08-04T04:36:15.130Z,99.90
2022-08-04T04:39:01.029Z,99.90
2022-08-04T04:41:50.202Z,99.90
2022-08-04T04:44:32.221Z,99.90
2022-08-04T04:47:42.812Z,99.90
2022-08-04T04:50:21.303Z,99.90
2022-08-04T04:53:11.288Z,99.90
2022-08-04T04:55:48.487Z,99.90
2022-08-04T04:58:20.294Z,99.90
2022-08-04T05:01:06.595Z,99.90
2022-08-04T05:04:03.208Z,99.90
2022-08-04T05:06:45.505Z,99.90
2022-08-04T05:09:25.794Z,99.90
2022-08-04T05:12:44.928Z,99.90
2022-08-04T05:15:00.000Z,99.90
2022-08-04T05:17:33.898Z,99.90
2022-08-04T05:20:07.427Z,99.90
2022-08-04T05:22:45.349Z,99.90
2022-08-04T05:25:27.800Z,99.90
2022-08-04T05:28:13.709Z,99.90
2022-08-04T05:30:49.892Z,99.90
2022-08-04T05:33:31.444Z,99.90
2022-08-04T05:36:20.724Z,99.90
2022-08-04T05:38:54.644Z,99.90
2022-08-04T05:41:23.046Z,99.90
2022-08-04T05:44:03.302Z,99.90
2022-08-04T05:46:31.414Z,99.90
2022-08-04T05:49:08.002Z,99.90
2022-08-04T05:52:11.591Z,99.90
2022-08-04T05:54:43.358Z,99.90
2022-08-04T05:57:11.721Z,99.90
2022-08-04T05:59:42.815Z,99.90
2022-08-04T06:02:10.965Z,99.70
2022-08-04T06:04:41.077Z,99.00
2022-08-04T06:07:08.769Z,98.20
2022-08-04T06:09:36.131Z,97.90
2022-08-04T06:12:11.331Z,97.10
2022-08-04T06:14:43.159Z,96.80
2022-08-04T06:18:33.145Z,96.90
2022-08-04T06:20:23.963Z,96.10
2022-08-04T06:23:22.470Z,94.10
2022-08-04T06:25:57.051Z,93.20
2022-08-04T06:28:27.057Z,93.10
2022-08-04T06:32:28.436Z,92.80
2022-08-04T06:33:54.565Z,92.50
2022-08-04T06:36:22.724Z,91.60
2022-08-04T06:38:58.455Z,91.50
2022-08-04T06:41:29.090Z,90.90
2022-08-04T06:44:01.569Z,91.20
2022-08-04T06:46:30.815Z,90.70
2022-08-04T06:49:05.606Z,90.60
2022-08-04T06:51:42.375Z,90.00
2022-08-04T06:54:19.753Z,89.10
2022-08-04T06:57:17.530Z,88.60
2022-08-04T06:59:47.847Z,88.50
2022-08-04T07:02:20.428Z,87.30
2022-08-04T07:04:49.076Z,87.30
2022-08-04T07:07:18.403Z,87.30
2022-08-04T07:09:46.229Z,86.40
2022-08-04T07:12:14.086Z,86.00
2022-08-04T07:14:44.516Z,86.60
2022-08-04T07:17:14.071Z,86.70
2022-08-04T07:19:41.823Z,87.20
2022-08-04T07:22:17.779Z,86.00
2022-08-04T07:25:03.597Z,85.30
2022-08-04T07:27:47.920Z,85.70
2022-08-04T07:33:26.475Z,84.20
2022-08-04T07:36:08.961Z,85.00
2022-08-04T07:39:11.853Z,84.50
2022-08-04T07:46:20.195Z,83.10
2022-08-04T07:48:49.883Z,82.70
2022-08-04T07:51:18.207Z,83.00
2022-08-04T07:53:56.450Z,82.80
2022-08-04T07:59:36.946Z,81.60
2022-08-04T08:02:04.672Z,82.80
2022-08-04T08:05:02.109Z,83.20
2022-08-04T08:07:31.229Z,82.40
2022-08-04T08:09:58.589Z,82.90
2022-08-04T08:12:35.767Z,82.20
2022-08-04T08:15:17.921Z,81.50
2022-08-04T08:17:59.945Z,80.10
2022-08-04T08:20:30.935Z,81.10
2022-08-04T08:22:59.805Z,79.30
2022-08-04T08:25:27.413Z,80.90
2022-08-04T08:27:56.141Z,81.20
2022-08-04T08:30:32.076Z,79.90
2022-08-04T08:33:05.635Z,79.40
2022-08-04T08:36:04.565Z,79.20
2022-08-04T08:44:03.753Z,78.70
2022-08-04T08:46:48.104Z,77.00
2022-08-04T08:53:09.094Z,75.80
2022-08-04T08:56:31.269Z,75.60
2022-08-04T09:00:31.825Z,74.20
2022-08-04T09:03:57.180Z,74.20
2022-08-04T09:07:06.170Z,75.00
2022-08-04T09:10:17.021Z,75.80
2022-08-04T09:13:05.512Z,74.50
2022-08-04T09:16:35.428Z,75.10
2022-08-04T09:19:38.080Z,73.50
2022-08-04T09:22:20.792Z,73.10
2022-08-04T09:25:09.035Z,72.10
2022-08-04T09:28:53.958Z,71.70
2022-08-04T09:34:44.339Z,72.20
2022-08-04T09:37:46.096Z,73.40
2022-08-04T09:40:31.106Z,73.40
2022-08-04T09:47:43.873Z,72.50
2022-08-04T09:50:40.060Z,73.30
2022-08-04T09:53:58.177Z,72.30
2022-08-04T09:57:11.407Z,70.60
2022-08-04T10:04:13.380Z,70.70
2022-08-04T10:10:45.116Z,70.50
2022-08-04T10:13:54.475Z,69.80
2022-08-04T10:16:49.353Z,70.30
2022-08-04T10:19:40.066Z,71.50
2022-08-04T10:23:10.418Z,71.40
2022-08-04T10:26:07.553Z,69.80
2022-08-04T10:29:06.967Z,71.40
2022-08-04T10:31:44.458Z,70.60
2022-08-04T10:34:44.453Z,72.00
2022-08-04T10:37:14.714Z,71.50
2022-08-04T10:40:14.236Z,71.40
2022-08-04T10:43:38.378Z,71.40
2022-08-04T10:46:14.804Z,72.20
2022-08-04T10:49:10.238Z,69.50
2022-08-04T10:52:04.077Z,71.20
2022-08-04T10:54:45.223Z,70.20
2022-08-04T10:57:23.850Z,71.10
2022-08-04T11:00:12.622Z,72.10
2022-08-04T11:03:43.715Z,72.10
2022-08-04T11:06:19.489Z,71.30
2022-08-04T11:09:15.207Z,71.10
2022-08-04T11:12:00.493Z,70.30
2022-08-04T11:14:59.667Z,70.50
2022-08-04T11:18:04.354Z,71.50
2022-08-04T11:20:51.070Z,71.40
2022-08-04T11:23:28.792Z,70.60
2022-08-04T11:26:43.433Z,72.90
2022-08-04T11:32:39.427Z,69.80
2022-08-04T11:35:34.830Z,70.90
2022-08-04T11:38:11.940Z,70.80
2022-08-04T11:44:16.687Z,72.90
2022-08-04T11:46:56.070Z,71.70
2022-08-04T11:52:59.439Z,71.00
2022-08-04T11:56:37.273Z,71.60
2022-08-04T11:59:09.938Z,72.90
2022-08-04T12:05:37.203Z,72.10
2022-08-04T12:08:46.784Z,72.50
2022-08-04T12:11:58.478Z,72.20
2022-08-04T12:15:24.786Z,72.30
2022-08-04T12:18:24.912Z,71.90
2022-08-04T12:21:53.058Z,72.40
2022-08-04T12:25:39.990Z,72.50
2022-08-04T12:37:50.103Z,72.50
2022-08-04T12:40:31.415Z,73.70
2022-08-04T12:43:31.314Z,73.30
2022-08-04T12:46:55.833Z,72.70
2022-08-04T12:50:00.119Z,73.10
2022-08-04T12:55:22.212Z,72.70
2022-08-04T12:57:52.518Z,73.90
2022-08-04T13:00:29.577Z,73.50
2022-08-04T13:03:02.709Z,73.60
2022-08-04T13:05:40.254Z,73.90
2022-08-04T13:08:12.511Z,74.00
2022-08-04T13:10:46.291Z,73.50
2022-08-04T13:13:19.272Z,73.70
2022-08-04T13:16:02.068Z,72.70
2022-08-04T13:18:36.780Z,73.30
2022-08-04T13:21:49.956Z,73.10
2022-08-04T13:27:23.309Z,73.10
2022-08-04T13:29:59.006Z,73.00
2022-08-04T13:32:37.976Z,72.60
2022-08-04T13:35:09.840Z,72.80
2022-08-04T13:37:40.655Z,72.90
2022-08-04T13:40:14.079Z,72.40
2022-08-04T13:42:46.990Z,73.90
2022-08-04T13:45:15.612Z,73.50
2022-08-04T13:47:43.699Z,72.70
2022-08-04T13:50:27.153Z,73.60
2022-08-04T13:53:00.298Z,74.10
2022-08-04T13:55:38.147Z,74.10
2022-08-04T13:59:12.235Z,73.80
2022-08-04T14:01:47.467Z,73.60
2022-08-04T14:04:22.054Z,73.80
2022-08-04T14:07:33.274Z,74.00
2022-08-04T14:10:30.231Z,73.40
2022-08-04T14:13:07.317Z,73.30
2022-08-04T14:16:01.561Z,73.00
2022-08-04T14:19:00.587Z,73.10
2022-08-04T14:21:29.584Z,72.60
2022-08-04T14:24:00.637Z,72.20
2022-08-04T14:29:28.495Z,72.60
2022-08-04T14:32:06.175Z,72.50
2022-08-04T14:34:45.303Z,72.20
2022-08-04T14:37:27.619Z,72.40
2022-08-04T14:40:08.783Z,72.20
2022-08-04T14:42:54.674Z,71.40
2022-08-04T14:45:34.992Z,72.40
2022-08-04T14:54:42.152Z,71.80
2022-08-04T14:57:10.951Z,71.40
2022-08-04T15:03:08.817Z,72.20
2022-08-04T15:05:55.388Z,73.20
2022-08-04T15:09:03.968Z,72.60
2022-08-04T15:11:31.633Z,71.80
2022-08-04T15:13:59.385Z,72.50
2022-08-04T15:16:30.073Z,72.50
2022-08-04T15:19:01.218Z,71.70
2022-08-04T15:21:30.420Z,72.40
2022-08-04T15:24:01.114Z,71.90
2022-08-04T15:26:43.215Z,72.50
2022-08-04T15:29:59.134Z,72.30
2022-08-04T15:32:36.114Z,72.60
2022-08-04T15:35:13.273Z,71.60
2022-08-04T15:37:59.953Z,72.30
2022-08-04T15:40:43.393Z,72.60
2022-08-04T15:43:31.755Z,73.60
2022-08-04T15:46:33.220Z,73.00
2022-08-04T15:48:53.104Z,71.70
2022-08-04T15:51:32.945Z,72.00
2022-08-04T15:54:33.380Z,70.60
2022-08-04T15:57:51.548Z,71.90
2022-08-04T16:00:24.992Z,70.90
2022-08-04T16:02:52.914Z,70.40
2022-08-04T16:05:52.814Z,70.00
2022-08-04T16:09:03.899Z,69.80
2022-08-04T16:11:37.328Z,69.00
2022-08-04T16:14:07.637Z,68.50
2022-08-04T16:20:36.852Z,67.80
2022-08-04T16:23:52.369Z,66.70
2022-08-04T16:26:45.566Z,67.30
2022-08-04T16:29:39.834Z,67.30
2022-08-04T16:36:21.379Z,67.30
2022-08-04T16:39:07.480Z,67.40
2022-08-04T16:41:40.219Z,67.20
2022-08-04T16:44:57.875Z,66.70
2022-08-04T16:47:49.984Z,67.40
2022-08-04T16:50:22.197Z,67.50
2022-08-04T16:56:00.140Z,67.40
2022-08-04T16:58:32.548Z,68.40
2022-08-04T17:01:12.823Z,67.70
2022-08-04T17:04:11.352Z,68.00
2022-08-04T17:06:41.825Z,68.50
2022-08-04T17:09:16.449Z,67.90
2022-08-04T17:11:45.862Z,68.00
2022-08-04T17:14:33.238Z,68.00
2022-08-04T17:17:08.872Z,67.90
2022-08-04T17:19:51.280Z,68.20
2022-08-04T17:22:20.185Z,68.30
2022-08-04T17:24:52.482Z,68.20
2022-08-04T17:28:09.988Z,68.10
2022-08-04T17:30:27.298Z,68.00
2022-08-04T17:33:15.366Z,68.10
2022-08-04T17:35:47.432Z,67.10
2022-08-04T17:38:17.423Z,67.40
2022-08-04T17:41:19.518Z,67.50
2022-08-04T17:44:00.995Z,67.20
2022-08-04T17:46:45.370Z,67.80
2022-08-04T17:49:18.594Z,67.40
2022-08-04T17:52:39.649Z,67.90
2022-08-04T17:55:07.785Z,68.10
2022-08-04T17:58:35.193Z,67.90
2022-08-04T18:01:23.631Z,68.10
2022-08-04T18:03:58.143Z,69.20
2022-08-04T18:06:28.539Z,69.90
2022-08-04T18:08:58.860Z,69.70
2022-08-04T18:11:29.456Z,69.70
2022-08-04T18:14:10.309Z,69.60
2022-08-04T18:16:45.384Z,69.60
2022-08-04T18:19:55.797Z,70.10
2022-08-04T18:22:27.668Z,70.10
2022-08-04T18:24:56.996Z,70.10
2022-08-04T18:27:29.945Z,70.40
2022-08-04T18:30:34.532Z,70.40
2022-08-04T18:33:10.448Z,70.40
2022-08-04T18:36:32.924Z,70.60
2022-08-04T18:38:23.911Z,70.80
2022-08-04T18:40:52.786Z,70.40
2022-08-04T18:43:28.340Z,70.50
2022-08-04T18:45:59.622Z,70.40
2022-08-04T18:48:35.884Z,70.80
2022-08-04T18:51:22.903Z,71.10
2022-08-04T18:53:58.632Z,71.10
2022-08-04T18:56:32.834Z,71.90
2022-08-04T18:59:03.151Z,72.50
2022-08-04T19:02:13.610Z,73.10
2022-08-04T19:04:33.743Z,73.60
2022-08-04T19:07:29.289Z,74.00
2022-08-04T19:09:57.594Z,74.50
2022-08-04T19:12:27.955Z,74.40
2022-08-04T19:14:58.335Z,74.70
2022-08-04T19:17:53.997Z,75.00
2022-08-04T19:20:25.295Z,75.20
2022-08-04T19:24:11.303Z,75.60
2022-08-04T19:26:03.909Z,75.50
2022-08-04T19:28:41.093Z,75.80
2022-08-04T19:31:12.012Z,76.40
2022-08-04T19:33:59.020Z,75.80
2022-08-04T19:36:39.243Z,75.90
2022-08-04T19:39:21.839Z,75.90
2022-08-04T19:42:05.993Z,75.90
2022-08-04T19:44:49.487Z,76.30
2022-08-04T19:48:18.033Z,76.80
2022-08-04T19:50:30.337Z,77.00
2022-08-04T19:53:37.288Z,77.20
2022-08-04T19:56:39.913Z,77.60
2022-08-04T19:59:39.300Z,78.10
2022-08-04T20:02:20.493Z,78.30
2022-08-04T20:05:52.691Z,78.40
2022-08-04T20:08:13.500Z,78.40
2022-08-04T20:18:06.997Z,78.50
2022-08-04T20:24:39.483Z,78.60
2022-08-04T20:26:59.146Z,78.70
2022-08-04T20:29:41.139Z,79.00
2022-08-04T20:32:11.890Z,79.20
2022-08-04T20:35:45.878Z,79.30
2022-08-04T20:38:32.679Z,79.40
2022-08-04T20:43:44.747Z,80.00
2022-08-04T20:46:28.672Z,80.10
2022-08-04T20:49:00.856Z,80.30
2022-08-04T20:51:40.179Z,80.40
2022-08-04T20:54:16.022Z,80.20
2022-08-04T20:56:50.571Z,80.30
2022-08-04T20:59:37.942Z,80.40
2022-08-04T21:02:16.398Z,80.40
2022-08-04T21:04:48.402Z,80.40
2022-08-04T21:07:18.936Z,80.40
2022-08-04T21:10:05.261Z,80.50
2022-08-04T21:12:39.224Z,80.30
2022-08-04T21:15:14.484Z,80.50
2022-08-04T21:17:58.991Z,80.60
2022-08-04T21:20:32.279Z,80.50
2022-08-04T21:23:01.910Z,81.30
2022-08-04T21:25:30.180Z,81.60
2022-08-04T21:27:58.539Z,81.80
2022-08-04T21:30:27.051Z,82.10
2022-08-04T21:32:55.257Z,82.10
2022-08-04T21:35:30.080Z,82.30
2022-08-04T21:38:17.290Z,82.40
2022-08-04T21:40:53.807Z,82.00
2022-08-04T21:43:23.539Z,82.50
2022-08-04T21:45:56.053Z,83.00
2022-08-04T21:48:27.497Z,83.70
2022-08-04T21:50:55.266Z,83.20
2022-08-04T21:53:22.800Z,83.30
2022-08-04T21:56:05.998Z,83.40
2022-08-04T21:58:38.078Z,83.60
2022-08-04T22:01:13.071Z,83.60
2022-08-04T22:03:51.843Z,83.60
2022-08-04T22:06:28.043Z,83.60
2022-08-04T22:08:57.195Z,83.30
2022-08-04T22:11:43.859Z,83.40
2022-08-04T22:14:27.647Z,83.70
2022-08-04T22:17:02.198Z,83.70
2022-08-04T22:19:49.828Z,83.70
2022-08-04T22:22:25.908Z,83.60
2022-08-04T22:24:58.433Z,83.70
2022-08-04T22:27:47.563Z,83.60
2022-08-04T22:30:17.311Z,83.70
2022-08-04T22:32:50.517Z,83.70
2022-08-04T22:35:43.833Z,84.00
2022-08-04T22:38:24.030Z,84.00
2022-08-04T22:41:05.912Z,83.80
2022-08-04T22:43:34.811Z,84.30
2022-08-04T22:46:05.391Z,84.10
2022-08-04T22:51:22.466Z,84.10
2022-08-04T22:53:51.394Z,84.10
2022-08-04T22:56:38.421Z,83.80
2022-08-04T22:59:10.917Z,83.80
2022-08-04T23:01:59.154Z,85.20
2022-08-04T23:04:34.326Z,83.60
2022-08-04T23:07:11.593Z,84.60
2022-08-04T23:09:50.965Z,83.10
2022-08-04T23:12:25.383Z,84.20
2022-08-04T23:14:55.711Z,85.00
2022-08-04T23:17:24.681Z,84.50
2022-08-04T23:19:57.495Z,84.00
2022-08-04T23:22:42.075Z,83.90
2022-08-04T23:25:16.962Z,84.10
2022-08-04T23:27:50.738Z,84.50
2022-08-04T23:30:24.692Z,84.50
2022-08-04T23:32:57.997Z,85.00
2022-08-04T23:35:39.196Z,85.40
2022-08-04T23:38:31.219Z,85.00
2022-08-04T23:41:54.419Z,85.20
2022-08-04T23:44:50.163Z,84.50
2022-08-04T23:48:15.763Z,84.00
2022-08-04T23:50:22.068Z,84.40
2022-08-04T23:55:54.063Z,84.10
2022-08-04T23:58:28.392Z,84.40
